Time;durP1;ratioP1;P1;durP2;ratioP2;P2;SDS_P1;SDS_P2;PMS_P1;PMS_P2;Temp;Humidity;BMP_temperature;BMP_pressure;BME280_temperature;BME280_humidity;BME280_pressure;Samples;Min_cycle;Max_cycle;Signal;HPM_P1;HPM_P2
2023/11/29 00:00:31;;;;;;;21.90;6.87;;;-3.50;99.90;;;;;;4457620;27;659091;-72
2023/11/29 00:03:18;;;;;;;46.17;16.67;;;-3.50;99.90;;;;;;4427874;28;658320;-72
2023/11/29 00:06:05;;;;;;;13.40;5.77;;;-3.60;99.90;;;;;;4448120;27;659399;-71
2023/11/29 00:08:56;;;;;;;25.23;8.70;;;-3.60;99.90;;;;;;4423296;28;658209;-71
2023/11/29 00:11:44;;;;;;;26.47;8.50;;;-3.60;99.90;;;;;;4436331;28;657545;-72
2023/11/29 00:14:32;;;;;;;22.10;8.17;;;-3.60;99.90;;;;;;4451517;27;657603;-72
2023/11/29 00:17:21;;;;;;;60.10;19.70;;;-3.60;99.90;;;;;;4427856;28;658683;-72
2023/11/29 00:20:11;;;;;;;32.37;10.63;;;-3.70;99.90;;;;;;4427110;27;658903;-71
2023/11/29 00:22:58;;;;;;;52.47;18.27;;;-3.70;99.90;;;;;;4433385;27;659399;-71
2023/11/29 00:25:45;;;;;;;39.50;16.07;;;-3.70;99.90;;;;;;4455059;28;658823;-72
2023/11/29 00:28:32;;;;;;;37.38;14.48;;;-3.70;99.90;;;;;;4436789;27;658745;-72
2023/11/29 00:31:20;;;;;;;57.17;19.13;;;-3.70;99.90;;;;;;4463459;27;658044;-71
2023/11/29 00:34:08;;;;;;;16.40;7.37;;;-3.70;99.90;;;;;;4460105;28;658543;-72
2023/11/29 00:36:55;;;;;;;44.07;16.57;;;-3.70;99.90;;;;;;4431717;27;659308;-72
2023/11/29 00:39:42;;;;;;;23.33;8.27;;;-3.80;99.90;;;;;;4432315;27;659274;-71
2023/11/29 00:42:30;;;;;;;54.37;18.63;;;-3.80;99.90;;;;;;4454483;28;657485;-72
2023/11/29 00:45:18;;;;;;;60.27;20.03;;;-3.80;99.90;;;;;;4446366;28;659178;-71
2023/11/29 00:48:05;;;;;;;61.90;20.97;;;-3.90;99.90;;;;;;4457597;27;658114;-72
2023/11/29 00:50:54;;;;;;;47.13;16.93;;;-3.80;99.90;;;;;;4447153;27;659194;-71
2023/11/29 00:53:41;;;;;;;73.00;18.93;;;-3.90;99.90;;;;;;4458829;27;658562;-71
2023/11/29 00:56:28;;;;;;;59.93;20.93;;;-3.90;99.90;;;;;;4426415;27;658559;-72
2023/11/29 00:59:15;;;;;;;64.17;21.53;;;-3.90;99.90;;;;;;4448348;27;659314;-72
2023/11/29 01:02:02;;;;;;;47.13;15.48;;;-4.00;99.90;;;;;;4429298;28;658836;-71
2023/11/29 01:04:50;;;;;;;62.93;22.23;;;-4.00;99.90;;;;;;4459323;28;659073;-71
2023/11/29 01:07:38;;;;;;;38.23;13.90;;;-4.10;99.90;;;;;;4454929;28;658256;-72
2023/11/29 01:10:25;;;;;;;63.23;20.00;;;-4.10;99.90;;;;;;4435479;28;659214;-72
2023/11/29 01:13:12;;;;;;;65.75;22.60;;;-4.10;99.90;;;;;;4442774;28;658820;-71
2023/11/29 01:16:00;;;;;;;50.50;16.87;;;-4.10;99.90;;;;;;4458406;28;658834;-72
2023/11/29 01:18:47;;;;;;;61.07;20.67;;;-4.10;99.90;;;;;;4438998;28;658843;-72
2023/11/29 01:21:38;;;;;;;35.17;12.97;;;-4.20;99.90;;;;;;4455609;28;658733;-72
2023/11/29 01:24:26;;;;;;;55.22;15.52;;;-4.20;99.90;;;;;;4431038;28;659690;-72
2023/11/29 01:27:13;;;;;;;51.28;19.15;;;-4.30;99.90;;;;;;4429720;28;658404;-72
2023/11/29 01:30:02;;;;;;;59.78;17.10;;;-4.30;99.90;;;;;;4460130;28;658687;-72
2023/11/29 01:32:50;;;;;;;52.83;16.43;;;-4.30;99.90;;;;;;4424467;28;658837;-72
2023/11/29 01:35:37;;;;;;;49.47;17.07;;;-4.30;99.90;;;;;;4461599;28;657958;-72
2023/11/29 01:38:24;;;;;;;48.83;16.70;;;-4.30;99.90;;;;;;4426683;28;659290;-71
2023/11/29 01:41:13;;;;;;;63.47;20.77;;;-4.40;99.90;;;;;;4455759;28;658208;-72
2023/11/29 01:44:00;;;;;;;60.70;19.77;;;-4.40;99.90;;;;;;4437121;28;659269;-72
2023/11/29 01:46:47;;;;;;;53.27;17.87;;;-4.40;99.90;;;;;;4450084;28;658682;-72
2023/11/29 01:49:35;;;;;;;60.40;19.70;;;-4.40;99.90;;;;;;4448823;28;658531;-71
2023/11/29 01:52:22;;;;;;;60.83;20.93;;;-4.50;99.90;;;;;;4452167;28;659283;-72
2023/11/29 01:55:10;;;;;;;59.43;19.50;;;-4.50;99.90;;;;;;4458720;28;659356;-71
2023/11/29 01:57:58;;;;;;;57.23;19.47;;;-4.60;99.90;;;;;;4443734;28;658192;-72
2023/11/29 02:00:46;;;;;;;60.10;20.60;;;-4.50;99.90;;;;;;4440998;27;659321;-72
2023/11/29 02:03:33;;;;;;;59.27;18.83;;;-4.60;99.90;;;;;;4440696;27;658529;-72
2023/11/29 02:06:20;;;;;;;56.33;19.90;;;-4.60;99.90;;;;;;4461918;27;659545;-72
2023/11/29 02:09:07;;;;;;;57.43;20.53;;;-4.70;99.90;;;;;;4444757;27;658415;-71
2023/11/29 02:11:55;;;;;;;61.17;20.60;;;-4.70;99.90;;;;;;4450791;27;658482;-72
2023/11/29 02:14:44;;;;;;;66.87;20.63;;;-4.70;99.90;;;;;;4457633;27;659192;-72
2023/11/29 02:17:31;;;;;;;54.83;18.73;;;-4.70;99.90;;;;;;4453602;27;658729;-72
2023/11/29 02:20:18;;;;;;;49.97;16.30;;;-4.70;99.90;;;;;;4431464;28;658836;-71
2023/11/29 02:23:21;;;;;;;61.00;20.63;;;-4.70;99.90;;;;;;4458557;27;659483;-72
2023/11/29 02:26:10;;;;;;;61.00;20.50;;;-4.80;99.90;;;;;;4410200;27;659081;-72
2023/11/29 02:28:57;;;;;;;60.38;19.92;;;-4.80;99.90;;;;;;4430590;27;659577;-72
2023/11/29 02:31:45;;;;;;;57.50;19.87;;;-4.80;99.90;;;;;;4461434;27;659364;-72
2023/11/29 02:34:32;;;;;;;63.73;20.37;;;-4.80;99.90;;;;;;4461095;27;659621;-71
2023/11/29 02:37:19;;;;;;;56.50;20.67;;;-4.80;99.90;;;;;;4429630;27;658712;-72
2023/11/29 02:40:08;;;;;;;60.10;20.47;;;-4.80;99.90;;;;;;4463626;28;658421;-72
2023/11/29 02:42:56;;;;;;;55.23;19.90;;;-4.80;99.90;;;;;;4433900;27;659598;-71
2023/11/29 02:45:43;;;;;;;59.17;18.50;;;-4.70;99.90;;;;;;4432972;27;658655;-72
2023/11/29 02:48:31;;;;;;;54.00;17.80;;;-4.80;99.90;;;;;;4456614;27;658977;-75
2023/11/29 02:51:18;;;;;;;35.33;12.90;;;-4.80;99.90;;;;;;4428710;28;658911;-72
2023/11/29 02:54:05;;;;;;;57.57;19.03;;;-4.80;99.90;;;;;;4451452;28;659601;-72
2023/11/29 02:56:52;;;;;;;54.20;18.50;;;-4.80;99.90;;;;;;4445417;27;658948;-72
2023/11/29 02:59:41;;;;;;;35.00;11.93;;;-4.80;99.90;;;;;;4460836;27;659689;-72
2023/11/29 03:02:28;;;;;;;53.80;17.17;;;-4.80;99.90;;;;;;4435569;27;659431;-72
2023/11/29 03:05:16;;;;;;;50.97;16.75;;;-4.80;99.90;;;;;;4458516;27;659952;-72
2023/11/29 03:08:04;;;;;;;52.53;17.63;;;-4.80;99.90;;;;;;4435048;27;658996;-71
2023/11/29 03:10:51;;;;;;;24.90;7.67;;;-4.80;99.90;;;;;;4443631;27;658855;-72
2023/11/29 03:13:38;;;;;;;52.70;17.97;;;-4.70;99.90;;;;;;4441796;27;657383;-72
2023/11/29 03:16:27;;;;;;;32.93;11.17;;;-4.80;99.90;;;;;;4449032;28;659201;-72
2023/11/29 03:19:14;;;;;;;52.80;17.17;;;-4.80;99.90;;;;;;4432350;27;658922;-72
2023/11/29 03:22:01;;;;;;;49.47;15.57;;;-4.90;99.90;;;;;;4450532;28;658542;-72
2023/11/29 03:24:49;;;;;;;53.77;17.93;;;-4.80;99.90;;;;;;4437815;27;658751;-72
2023/11/29 03:27:36;;;;;;;51.27;17.50;;;-4.80;99.90;;;;;;4458286;27;658531;-72
2023/11/29 03:30:23;;;;;;;55.70;17.73;;;-4.90;99.90;;;;;;4430743;27;658512;-72
2023/11/29 03:33:12;;;;;;;49.13;18.40;;;-4.90;99.90;;;;;;4460118;27;658976;-72
2023/11/29 03:35:59;;;;;;;54.30;18.80;;;-5.00;99.90;;;;;;4440066;27;658829;-72
2023/11/29 03:38:46;;;;;;;57.77;18.33;;;-5.10;99.90;;;;;;4450641;27;658357;-72
2023/11/29 03:41:33;;;;;;;64.00;18.87;;;-5.10;99.90;;;;;;4427702;28;659159;-72
2023/11/29 03:44:20;;;;;;;57.93;19.53;;;-5.20;99.90;;;;;;4446422;28;659458;-72
2023/11/29 03:47:08;;;;;;;32.33;10.60;;;-5.20;99.90;;;;;;4435867;27;658821;-72
2023/11/29 03:49:56;;;;;;;62.50;20.33;;;-5.30;99.90;;;;;;4443994;28;659046;-72
2023/11/29 03:52:43;;;;;;;43.37;13.47;;;-5.20;99.90;;;;;;4423223;27;658854;-72
2023/11/29 03:55:30;;;;;;;57.00;17.85;;;-5.20;99.90;;;;;;4445622;28;660089;-72
2023/11/29 03:58:18;;;;;;;58.37;18.03;;;-5.20;99.90;;;;;;4432181;27;658597;-72
2023/11/29 04:01:05;;;;;;;67.27;18.77;;;-5.20;99.90;;;;;;4451045;27;659761;-72
2023/11/29 04:03:52;;;;;;;43.38;14.73;;;-5.30;99.90;;;;;;4429867;28;659449;-72
2023/11/29 04:06:41;;;;;;;57.93;17.73;;;-5.30;99.90;;;;;;4450790;27;659355;-72
2023/11/29 04:09:28;;;;;;;53.47;15.83;;;-5.30;99.90;;;;;;4438266;27;659220;-71
2023/11/29 04:12:15;;;;;;;64.50;19.53;;;-5.30;99.90;;;;;;4445739;28;659539;-72
2023/11/29 04:15:03;;;;;;;33.55;10.45;;;-5.30;99.90;;;;;;4439764;27;659358;-72
2023/11/29 04:17:50;;;;;;;52.70;18.40;;;-5.20;99.90;;;;;;4454915;27;659204;-72
2023/11/29 04:20:37;;;;;;;70.93;21.10;;;-5.30;99.90;;;;;;4449976;27;658529;-71
2023/11/29 04:23:26;;;;;;;59.87;19.53;;;-5.20;99.90;;;;;;4455646;27;658894;-72
2023/11/29 04:26:27;;;;;;;60.90;19.83;;;-5.20;99.90;;;;;;4424277;27;658501;-72
2023/11/29 04:29:14;;;;;;;50.63;16.40;;;-5.20;99.90;;;;;;4447135;27;658857;-72
2023/11/29 04:32:01;;;;;;;61.43;18.40;;;-5.30;99.90;;;;;;4446469;27;658764;-72
2023/11/29 04:34:48;;;;;;;37.40;11.13;;;-5.30;99.90;;;;;;4426922;28;658776;-72
2023/11/29 04:37:35;;;;;;;74.50;22.83;;;-5.20;99.90;;;;;;4454650;27;659651;-72
2023/11/29 04:40:24;;;;;;;61.73;18.07;;;-5.30;99.90;;;;;;4427889;27;659509;-72
2023/11/29 04:43:11;;;;;;;52.43;17.53;;;-5.30;99.90;;;;;;4452578;27;658666;-72
2023/11/29 04:45:58;;;;;;;55.50;16.67;;;-5.30;99.90;;;;;;4421910;28;658553;-72
2023/11/29 04:48:46;;;;;;;49.70;15.68;;;-5.30;99.90;;;;;;4461433;28;658781;-72
2023/11/29 04:51:33;;;;;;;30.30;8.97;;;-5.30;99.90;;;;;;4435120;27;658800;-72
2023/11/29 04:54:20;;;;;;;56.93;18.83;;;-5.30;99.90;;;;;;4459635;27;658880;-72
2023/11/29 04:57:09;;;;;;;63.22;19.83;;;-5.40;99.90;;;;;;4439070;28;658787;-72
2023/11/29 04:59:57;;;;;;;65.27;19.47;;;-5.40;99.90;;;;;;4440807;28;658823;-72
2023/11/29 05:02:44;;;;;;;64.83;19.83;;;-5.50;99.90;;;;;;4422974;28;658842;-72
2023/11/29 05:05:31;;;;;;;27.83;7.27;;;-5.40;99.90;;;;;;4451447;27;658814;-72
2023/11/29 05:08:19;;;;;;;25.57;9.70;;;-5.40;99.90;;;;;;4437630;27;658058;-72
2023/11/29 05:11:07;;;;;;;50.90;14.63;;;-5.40;99.90;;;;;;4458734;27;657606;-72
2023/11/29 05:13:55;;;;;;;55.63;16.17;;;-5.50;99.90;;;;;;4422297;28;659240;-72
2023/11/29 05:16:42;;;;;;;45.42;14.13;;;-5.60;99.90;;;;;;4434032;28;658984;-71
2023/11/29 05:19:30;;;;;;;39.63;13.10;;;-5.70;99.90;;;;;;4458600;28;659088;-72
2023/11/29 05:22:17;;;;;;;37.47;10.23;;;-5.60;99.90;;;;;;4440846;28;658960;-72
2023/11/29 05:25:05;;;;;;;46.10;14.17;;;-5.60;99.90;;;;;;4453079;28;659362;-71
2023/11/29 05:27:52;;;;;;;5.93;3.03;;;-5.60;99.90;;;;;;4437950;28;658769;-71
2023/11/29 05:30:42;;;;;;;46.73;15.83;;;-5.60;99.90;;;;;;4461544;28;657808;-72
2023/11/29 05:33:29;;;;;;;15.73;7.60;;;-5.60;99.90;;;;;;4438007;28;659282;-72
2023/11/29 05:36:19;;;;;;;44.53;14.90;;;-5.60;99.90;;;;;;4455657;27;657207;-72
2023/11/29 05:39:08;;;;;;;23.37;6.77;;;-5.50;99.90;;;;;;4426107;28;658754;-71
2023/11/29 05:41:55;;;;;;;35.43;11.10;;;-5.60;99.90;;;;;;4430639;27;659144;-72
2023/11/29 05:44:43;;;;;;;31.17;9.23;;;-5.60;99.90;;;;;;4431480;27;658733;-72
2023/11/29 05:47:31;;;;;;;30.57;8.70;;;-5.60;99.90;;;;;;4459188;27;658024;-72
2023/11/29 05:50:18;;;;;;;54.05;19.65;;;-5.60;99.90;;;;;;4440918;27;657720;-72
2023/11/29 05:53:06;;;;;;;58.15;17.73;;;-5.70;99.90;;;;;;4460997;27;659305;-71
2023/11/29 05:55:53;;;;;;;49.97;15.37;;;-5.60;99.90;;;;;;4433375;27;659227;-72
2023/11/29 05:58:42;;;;;;;52.97;18.13;;;-5.70;99.90;;;;;;4457159;27;659564;-72
2023/11/29 06:01:30;;;;;;;53.37;16.77;;;-5.70;99.90;;;;;;4432778;27;659955;-72
2023/11/29 06:04:18;;;;;;;52.90;17.17;;;-5.60;99.90;;;;;;4452677;27;658527;-72
2023/11/29 06:07:05;;;;;;;26.48;9.85;;;-5.60;99.90;;;;;;4436612;27;659062;-72
2023/11/29 06:09:53;;;;;;;46.87;16.10;;;-5.50;99.90;;;;;;4436980;27;659235;-72
2023/11/29 06:12:40;;;;;;;35.27;12.67;;;-5.60;99.90;;;;;;4453038;27;659369;-72
2023/11/29 06:15:28;;;;;;;43.17;11.77;;;-5.60;99.90;;;;;;4444325;27;658921;-72
2023/11/29 06:18:16;;;;;;;58.77;19.87;;;-5.60;99.90;;;;;;4451838;27;659156;-72
2023/11/29 06:21:05;;;;;;;52.53;17.50;;;-5.70;99.90;;;;;;4443683;27;658526;-72
2023/11/29 06:23:52;;;;;;;63.27;18.43;;;-5.60;99.90;;;;;;4464946;27;658988;-72
2023/11/29 06:26:39;;;;;;;55.23;17.17;;;-5.60;99.90;;;;;;4438342;27;658932;-72
2023/11/29 06:29:26;;;;;;;51.87;15.97;;;-5.60;99.90;;;;;;4465888;27;658264;-73
2023/11/29 06:32:13;;;;;;;56.67;17.93;;;-5.50;99.90;;;;;;4439115;27;659444;-72
2023/11/29 06:35:01;;;;;;;52.25;17.08;;;-5.60;99.90;;;;;;4463169;27;660284;-73
2023/11/29 06:37:49;;;;;;;22.63;9.07;;;-5.50;99.90;;;;;;4436183;27;660343;-72
2023/11/29 06:40:36;;;;;;;41.43;13.83;;;-5.50;99.90;;;;;;4463611;27;657144;-72
2023/11/29 06:43:24;;;;;;;49.83;15.03;;;-5.40;99.90;;;;;;4432663;27;658825;-72
2023/11/29 06:46:11;;;;;;;58.97;18.37;;;-5.40;99.90;;;;;;4460149;27;659027;-73
2023/11/29 06:48:58;;;;;;;68.20;18.00;;;-5.40;99.90;;;;;;4428359;27;659210;-72
2023/11/29 06:51:45;;;;;;;53.73;17.17;;;-5.50;99.90;;;;;;4461034;27;658760;-73
2023/11/29 06:54:34;;;;;;;17.63;7.22;;;-5.50;99.90;;;;;;4434339;27;659288;-71
2023/11/29 06:57:21;;;;;;;43.90;13.80;;;-5.50;99.90;;;;;;4455596;27;657755;-72
2023/11/29 07:00:10;;;;;;;44.57;12.73;;;-5.40;99.90;;;;;;4431100;27;658485;-72
2023/11/29 07:02:57;;;;;;;49.27;15.03;;;-5.40;99.90;;;;;;4445950;28;658436;-72
2023/11/29 07:05:45;;;;;;;57.27;17.50;;;-5.40;99.90;;;;;;4456113;28;659147;-73
2023/11/29 07:08:32;;;;;;;51.63;15.33;;;-5.40;99.90;;;;;;4447966;27;659168;-73
2023/11/29 07:11:20;;;;;;;53.53;16.60;;;-5.30;99.90;;;;;;4433390;27;659428;-72
2023/11/29 07:14:07;;;;;;;66.97;18.27;;;-5.20;99.90;;;;;;4433979;27;658949;-72
2023/11/29 07:16:55;;;;;;;38.83;12.47;;;-5.30;99.90;;;;;;4462400;28;658739;-72
2023/11/29 07:19:42;;;;;;;22.80;7.67;;;-5.30;99.90;;;;;;4454839;27;658977;-72
2023/11/29 07:22:32;;;;;;;63.00;19.67;;;-5.30;99.90;;;;;;4465650;27;658133;-73
2023/11/29 07:25:19;;;;;;;27.93;8.63;;;-5.10;99.90;;;;;;4433753;28;658996;-72
2023/11/29 07:28:08;;;;;;;48.70;17.53;;;-5.10;99.90;;;;;;4443704;27;657382;-73
2023/11/29 07:30:55;;;;;;;50.53;15.50;;;-5.20;99.90;;;;;;4427894;27;659173;-72
2023/11/29 07:33:44;;;;;;;50.57;15.50;;;-5.10;99.90;;;;;;4439259;27;658514;-72
2023/11/29 07:36:31;;;;;;;36.67;12.10;;;-5.00;99.90;;;;;;4446571;27;658951;-72
2023/11/29 07:39:18;;;;;;;45.27;13.73;;;-5.00;99.90;;;;;;4438538;27;658849;-72
2023/11/29 07:42:06;;;;;;;55.95;16.15;;;-5.00;99.90;;;;;;4450627;28;659858;-72
2023/11/29 07:44:55;;;;;;;37.77;11.70;;;-4.90;99.90;;;;;;4430056;28;658992;-72
2023/11/29 07:47:43;;;;;;;24.27;5.80;;;-4.90;99.90;;;;;;4431488;27;659159;-72
2023/11/29 07:50:30;;;;;;;20.80;8.30;;;-4.90;99.90;;;;;;4455880;27;658020;-72
2023/11/29 07:53:17;;;;;;;44.43;13.73;;;-5.00;99.90;;;;;;4426303;28;657870;-72
2023/11/29 07:56:06;;;;;;;23.07;9.33;;;-5.00;99.90;;;;;;4453616;27;659403;-72
2023/11/29 07:58:53;;;;;;;55.05;16.75;;;-4.90;99.90;;;;;;4434704;28;658177;-72
2023/11/29 08:01:42;;;;;;;39.27;12.10;;;-4.90;99.90;;;;;;4452744;27;659529;-72
2023/11/29 08:04:29;;;;;;;18.15;6.80;;;-4.80;99.90;;;;;;4432278;27;659473;-72
2023/11/29 08:07:17;;;;;;;38.73;13.50;;;-4.80;99.90;;;;;;4446555;27;657233;-72
2023/11/29 08:10:07;;;;;;;17.70;6.80;;;-4.70;99.90;;;;;;4432742;27;658993;-72
2023/11/29 08:12:54;;;;;;;40.13;13.73;;;-4.60;99.90;;;;;;4427044;28;657989;-72
2023/11/29 08:15:42;;;;;;;43.83;14.20;;;-4.70;99.90;;;;;;4451299;27;659484;-72
2023/11/29 08:18:30;;;;;;;50.30;14.30;;;-4.70;99.90;;;;;;4438882;27;659285;-72
2023/11/29 08:21:17;;;;;;;46.22;14.18;;;-4.50;99.90;;;;;;4432078;27;658547;-71
2023/11/29 08:24:05;;;;;;;38.57;12.47;;;-4.40;99.90;;;;;;4438166;27;659080;-72
2023/11/29 08:26:53;;;;;;;43.88;15.40;;;-4.30;99.90;;;;;;4429108;28;659375;-72
2023/11/29 08:29:40;;;;;;;20.83;7.73;;;-4.30;99.90;;;;;;4451966;27;659757;-72
2023/11/29 08:32:28;;;;;;;33.20;11.50;;;-4.30;99.90;;;;;;4433005;27;657532;-72
2023/11/29 08:35:16;;;;;;;27.67;10.13;;;-4.40;99.90;;;;;;4717873;27;659397;-73
2023/11/29 08:38:04;;;;;;;25.77;10.03;;;-4.40;99.90;;;;;;4435252;27;658894;-72
2023/11/29 08:40:51;;;;;;;42.83;14.77;;;-4.40;99.90;;;;;;4444086;28;658018;-72
2023/11/29 08:43:38;;;;;;;43.07;14.73;;;-4.30;99.90;;;;;;4421766;28;659036;-72
2023/11/29 08:46:25;;;;;;;50.27;17.07;;;-4.50;99.90;;;;;;4454691;27;658594;-72
2023/11/29 08:49:14;;;;;;;26.07;8.50;;;-4.50;99.90;;;;;;4418835;28;658817;-72
2023/11/29 08:52:02;;;;;;;34.03;11.83;;;-4.40;99.90;;;;;;4447216;28;658621;-72
2023/11/29 08:54:52;;;;;;;16.05;6.57;;;-4.50;99.90;;;;;;4435346;27;659639;-72
2023/11/29 08:57:40;;;;;;;11.93;4.93;;;-4.50;99.90;;;;;;4435496;28;658657;-72
2023/11/29 09:00:27;;;;;;;12.30;7.23;;;-4.40;99.90;;;;;;4441212;28;658808;-72
2023/11/29 09:03:15;;;;;;;19.47;9.03;;;-4.40;99.90;;;;;;4444441;28;658209;-72
2023/11/29 09:06:02;;;;;;;18.90;6.77;;;-4.40;99.90;;;;;;4454222;27;659214;-72
2023/11/29 09:08:51;;;;;;;46.73;16.13;;;-4.50;99.90;;;;;;4423403;28;659485;-71
2023/11/29 09:11:38;;;;;;;29.00;10.60;;;-4.50;99.90;;;;;;4433380;28;659733;-72
2023/11/29 09:14:26;;;;;;;42.13;14.10;;;-4.40;99.90;;;;;;4440519;28;660461;-72
2023/11/29 09:17:16;;;;;;;19.60;6.77;;;-4.30;99.90;;;;;;4433091;28;659865;-71
2023/11/29 09:20:05;;;;;;;23.97;8.27;;;-4.30;99.90;;;;;;4427385;28;659021;-72
2023/11/29 09:22:53;;;;;;;13.07;5.18;;;-4.50;99.90;;;;;;4429956;28;660426;-72
2023/11/29 09:25:42;;;;;;;14.67;5.53;;;-4.60;99.90;;;;;;4446816;28;658751;-72
2023/11/29 09:28:29;;;;;;;33.70;12.43;;;-4.50;99.90;;;;;;4417700;28;658680;-72
2023/11/29 09:31:16;;;;;;;34.13;12.10;;;-4.60;99.90;;;;;;4446194;28;660011;-72
2023/11/29 09:34:04;;;;;;;41.83;14.87;;;-4.60;99.90;;;;;;4417573;28;659614;-72
2023/11/29 09:36:53;;;;;;;14.80;6.33;;;-4.60;99.90;;;;;;4445670;28;660229;-72
2023/11/29 09:39:40;;;;;;;3.85;3.42;;;-4.30;99.90;;;;;;4435482;28;659022;-72
2023/11/29 09:42:29;;;;;;;29.20;11.10;;;-4.20;99.90;;;;;;4437982;28;658158;-72
2023/11/29 09:45:22;;;;;;;36.83;13.13;;;-4.30;99.90;;;;;;4440945;28;660180;-72
2023/11/29 09:48:09;;;;;;;30.53;11.40;;;-4.10;99.90;;;;;;4428664;28;659641;-72
2023/11/29 09:50:56;;;;;;;21.50;8.30;;;-4.10;99.90;;;;;;4449085;28;660058;-72
2023/11/29 09:53:44;;;;;;;43.10;15.20;;;-4.10;99.90;;;;;;4426646;28;658438;-72
2023/11/29 09:56:31;;;;;;;32.80;9.83;;;-4.40;99.90;;;;;;4447249;28;660151;-72
2023/11/29 09:59:21;;;;;;;33.00;11.43;;;-4.50;99.90;;;;;;4428106;28;658889;-72
2023/11/29 10:02:08;;;;;;;23.83;6.63;;;-4.40;99.90;;;;;;4427066;28;660263;-72
2023/11/29 10:04:56;;;;;;;6.72;3.35;;;-4.70;99.90;;;;;;4445352;28;659655;-72
2023/11/29 10:07:43;;;;;;;54.07;18.40;;;-4.60;99.90;;;;;;4438166;28;657970;-72
2023/11/29 10:10:34;;;;;;;49.80;14.87;;;-4.60;99.90;;;;;;4437047;28;660676;-72
2023/11/29 10:13:22;;;;;;;25.48;7.47;;;-4.50;99.90;;;;;;4422532;28;660569;-72
2023/11/29 10:16:11;;;;;;;22.30;7.13;;;-4.30;99.90;;;;;;4422208;28;659388;-72
2023/11/29 10:18:58;;;;;;;16.00;6.43;;;-4.30;99.90;;;;;;4432331;28;659109;-72
2023/11/29 10:21:48;;;;;;;50.17;16.80;;;-4.40;99.90;;;;;;4453447;27;659459;-72
2023/11/29 10:24:35;;;;;;;16.87;7.17;;;-4.50;99.90;;;;;;4422990;27;660588;-74
2023/11/29 10:27:23;;;;;;;20.52;9.15;;;-4.60;99.90;;;;;;4439247;27;659105;-72
2023/11/29 10:30:12;;;;;;;28.67;9.93;;;-4.50;99.90;;;;;;4445795;27;658397;-72
2023/11/29 10:33:01;;;;;;;8.07;3.83;;;-4.50;99.90;;;;;;4439338;27;658897;-72
2023/11/29 10:35:48;;;;;;;32.07;8.53;;;-4.40;99.90;;;;;;4430984;27;658771;-71
2023/11/29 10:38:43;;;;;;;42.37;13.93;;;-4.20;99.90;;;;;;4439933;27;659989;-72
2023/11/29 10:41:31;;;;;;;30.57;7.20;;;-4.60;99.90;;;;;;4427151;28;659929;-72
2023/11/29 10:44:20;;;;;;;12.83;6.67;;;-4.30;99.90;;;;;;4427272;28;659395;-72
2023/11/29 10:47:10;;;;;;;35.40;11.75;;;-4.10;99.90;;;;;;4429585;28;659569;-72
2023/11/29 10:50:01;;;;;;;27.87;10.40;;;-4.10;99.90;;;;;;4431542;27;659938;-72
2023/11/29 10:52:49;;;;;;;36.20;11.73;;;-4.10;99.90;;;;;;4421239;28;659740;-72
2023/11/29 10:55:38;;;;;;;33.37;12.17;;;-4.20;99.90;;;;;;4445707;27;660264;-71
2023/11/29 10:58:30;;;;;;;15.77;5.57;;;-4.40;99.90;;;;;;4433708;27;659684;-72
2023/11/29 11:01:26;;;;;;;41.10;14.88;;;-4.40;99.90;;;;;;4420905;27;658927;-72
2023/11/29 11:04:13;;;;;;;11.00;3.28;;;-4.30;99.90;;;;;;4435680;27;659698;-72
2023/11/29 11:07:02;;;;;;;43.03;14.90;;;-4.20;99.90;;;;;;4451169;27;659633;-72
2023/11/29 11:09:50;;;;;;;23.60;7.80;;;-4.00;99.90;;;;;;4421807;27;660484;-72
2023/11/29 11:12:40;;;;;;;31.13;11.60;;;-4.10;99.90;;;;;;4441318;27;659237;-72
2023/11/29 11:15:29;;;;;;;27.35;9.13;;;-3.80;99.90;;;;;;4428864;27;659725;-72
2023/11/29 11:18:26;;;;;;;15.77;5.50;;;-3.70;99.90;;;;;;4456741;27;658677;-71
2023/11/29 11:21:16;;;;;;;22.67;9.30;;;-3.60;99.90;;;;;;4436771;27;658866;-72
2023/11/29 11:24:05;;;;;;;34.73;13.33;;;-3.60;99.90;;;;;;4438225;27;658665;-72
2023/11/29 11:27:08;;;;;;;28.67;9.43;;;-2.60;99.90;;;;;;4419961;28;660025;-72
2023/11/29 11:29:56;;;;;;;14.67;5.33;;;-2.80;99.90;;;;;;4425220;27;659867;-72
2023/11/29 11:32:45;;;;;;;19.77;5.00;;;-2.90;99.90;;;;;;4434371;28;658752;-71
2023/11/29 11:35:36;;;;;;;19.85;8.10;;;-3.00;99.90;;;;;;4440517;28;658699;-72
2023/11/29 11:38:23;;;;;;;33.73;13.20;;;-3.10;99.90;;;;;;4441219;27;659172;-72
2023/11/29 11:41:12;;;;;;;37.83;14.13;;;-2.90;99.90;;;;;;4458616;28;660113;-72
2023/11/29 11:43:59;;;;;;;11.77;3.63;;;-2.80;99.90;;;;;;4430964;27;660823;-72
2023/11/29 11:46:50;;;;;;;34.90;11.80;;;-3.20;99.90;;;;;;4443657;27;659269;-72
2023/11/29 11:49:38;;;;;;;40.67;14.03;;;-3.00;99.90;;;;;;4427144;28;660025;-72
2023/11/29 11:52:25;;;;;;;5.03;2.47;;;-2.80;99.90;;;;;;4445125;27;660887;-72
2023/11/29 11:55:15;;;;;;;18.77;4.70;;;-1.50;99.90;;;;;;4432214;27;657674;-72
2023/11/29 11:58:04;;;;;;;37.70;14.17;;;-1.70;99.90;;;;;;4464898;27;658364;-73
2023/11/29 12:00:51;;;;;;;20.53;7.60;;;-1.80;99.90;;;;;;4440453;27;659509;-73
2023/11/29 12:03:39;;;;;;;22.97;8.40;;;-1.00;99.90;;;;;;4441050;27;658544;-72
2023/11/29 12:06:26;;;;;;;32.00;9.13;;;-0.40;99.90;;;;;;4453217;27;658142;-72
2023/11/29 12:09:13;;;;;;;33.37;12.43;;;-0.40;99.90;;;;;;4422006;28;658652;-73
2023/11/29 12:12:08;;;;;;;35.80;13.80;;;0.10;99.90;;;;;;4448791;27;660810;-73
2023/11/29 12:14:56;;;;;;;37.43;14.87;;;-0.20;99.90;;;;;;4427001;27;660332;-74
2023/11/29 12:17:44;;;;;;;17.97;6.43;;;1.50;99.90;;;;;;4421750;28;659398;-73
2023/11/29 12:20:32;;;;;;;43.17;16.33;;;1.90;99.90;;;;;;4454395;27;658024;-74
2023/11/29 12:23:28;;;;;;;39.10;16.73;;;2.80;99.90;;;;;;4435559;27;659721;-73
2023/11/29 12:26:16;;;;;;;39.90;15.83;;;2.00;99.90;;;;;;4429474;27;659253;-73
2023/11/29 12:29:04;;;;;;;41.53;16.47;;;2.40;99.90;;;;;;4429816;27;659623;-74
2023/11/29 12:31:53;;;;;;;33.33;14.93;;;3.50;99.90;;;;;;4456562;28;659196;-73
2023/11/29 12:34:42;;;;;;;38.00;14.83;;;3.20;92.00;;;;;;4432841;28;659546;-72
2023/11/29 12:37:29;;;;;;;45.00;15.90;;;2.90;99.90;;;;;;4438484;27;658739;-73
2023/11/29 12:40:17;;;;;;;16.20;6.70;;;1.10;99.90;;;;;;4451782;28;659408;-73
2023/11/29 12:43:04;;;;;;;44.37;16.03;;;2.10;99.90;;;;;;4426943;28;657657;-73
2023/11/29 12:45:51;;;;;;;33.67;14.87;;;2.50;99.90;;;;;;4447108;28;659087;-73
2023/11/29 12:48:39;;;;;;;36.57;16.47;;;3.80;93.90;;;;;;4422985;28;659102;-72
2023/11/29 12:51:27;;;;;;;37.83;16.47;;;2.60;95.60;;;;;;4450174;28;658726;-72
2023/11/29 12:54:14;;;;;;;40.67;16.83;;;3.40;90.30;;;;;;4427579;27;658516;-72
2023/11/29 12:57:01;;;;;;;30.17;11.70;;;2.80;88.20;;;;;;4445621;28;660366;-72
2023/11/29 12:59:48;;;;;;;39.50;16.57;;;2.30;93.10;;;;;;4430958;28;659481;-72
2023/11/29 13:02:35;;;;;;;32.83;10.20;;;1.50;99.90;;;;;;4457531;28;658908;-72
2023/11/29 13:05:24;;;;;;;38.43;15.50;;;1.60;99.90;;;;;;4418624;28;658762;-72
2023/11/29 13:08:11;;;;;;;39.00;15.70;;;1.90;99.90;;;;;;4453029;28;657710;-72
2023/11/29 13:10:58;;;;;;;23.00;7.20;;;3.00;86.80;;;;;;4424988;28;658555;-72
2023/11/29 13:13:46;;;;;;;39.75;12.30;;;2.50;86.80;;;;;;4460664;27;657983;-72
2023/11/29 13:16:33;;;;;;;34.80;12.90;;;1.90;94.50;;;;;;4423448;28;658970;-72
2023/11/29 13:19:20;;;;;;;35.17;15.13;;;2.70;91.70;;;;;;4452770;28;660126;-72
2023/11/29 13:22:09;;;;;;;34.33;14.17;;;2.40;78.00;;;;;;4443486;28;658323;-72
2023/11/29 13:24:56;;;;;;;36.17;14.13;;;3.50;83.60;;;;;;4447473;28;658586;-72
2023/11/29 13:27:43;;;;;;;35.73;13.67;;;3.50;72.30;;;;;;4433599;28;659848;-72
2023/11/29 13:30:30;;;;;;;30.05;12.63;;;2.30;78.50;;;;;;4437712;28;658816;-72
2023/11/29 13:33:18;;;;;;;35.63;12.30;;;2.70;83.50;;;;;;4437683;28;658701;-72
2023/11/29 13:36:06;;;;;;;28.90;11.77;;;2.80;79.90;;;;;;4443484;28;659444;-71
2023/11/29 13:38:54;;;;;;;31.10;12.40;;;2.20;85.60;;;;;;4424311;28;658291;-72
2023/11/29 13:41:42;;;;;;;32.67;13.03;;;2.40;81.40;;;;;;4453433;28;658151;-72
2023/11/29 13:44:29;;;;;;;38.37;14.73;;;2.50;83.70;;;;;;4422615;28;658579;-72
2023/11/29 13:47:16;;;;;;;36.00;13.73;;;2.70;80.90;;;;;;4460893;28;658831;-72
2023/11/29 13:50:03;;;;;;;35.97;15.13;;;3.00;78.80;;;;;;4428772;28;658218;-73
2023/11/29 13:52:50;;;;;;;37.55;14.73;;;2.10;81.20;;;;;;4464507;28;658905;-72
2023/11/29 13:55:39;;;;;;;34.67;15.10;;;2.20;84.90;;;;;;4425230;28;658541;-72
2023/11/29 13:58:26;;;;;;;38.17;15.43;;;2.60;80.90;;;;;;4448389;28;658249;-72
2023/11/29 14:01:15;;;;;;;43.10;16.13;;;1.50;87.10;;;;;;4435683;27;659196;-72
2023/11/29 14:04:02;;;;;;;33.00;14.93;;;0.50;96.40;;;;;;4448779;27;659184;-72